Hauptseite
METAR-TAF:

METAR-TAF

Flughäfen :

Ouagadougou, Burkina Faso

Flughafen Ouagadougou

Breite: 12-21N, Länge: 001-31W, Höhe: 316 m

Beobachtung

Neuester Wetterbericht von vor 21 Minuten, um 05:00 UTC
Wind 2 kt aus Ost/Nordost
Temperatur 25°C
Luftfeuchtigkeit 32%
Luftdruck 1010 hPa
Sichtweite 10 km oder mehr
keine Wolken unter 1500 m und keine Kumulonimbus oder Gewitterwolken

METAR: DFFD 260500Z 06002KT CAVOK 25/07 Q1010 NOSIG

Zeit: 05:21 (05:21 UTC)

Prognose

Neuester Wetterbericht von vor 6 Stunden und 21 Minuten, um 23:00 UTC
Gültige Prognose vom 26 um 00 UTC bis 27 um 06 UTC
Wind 8 kt aus Ost
Sichtweite: 8000 m
Zeitweise
vom 26 um 06 UTC bis 26 um 09 UTC
Sichtweite: 4000 m
trockener Dunst
Zeitweise
vom 26 um 09 UTC bis 26 um 12 UTC
Wind 18 kt aus Ost
Sichtweite: 3500 m
Staubtreiben

TAF: DFFD 252300Z 2600/2706 08008KT 8000 NSC TEMPO 2606/2609 4000 HZ TEMPO 2609/2612 08018KT 3500 BLDU

Wetterbeobachtungen und Prognosen von mehr als 4000 Flughäfen (METAR und TAF Bericht).

Die verfügbaren Stationen werden durch gelbe und rote Markierungen auf der Karte dargestellt.

Führen Sie die Maus auf sie, um den Namen der Station zu sehen.

Darauf klicken, um die Beobachtung von Wetterbeobachtungen und Prognosen zu sehen.

Um die Karte zu ändern : klicken Sie auf den grünen Tasten mit einem schwarzen Kreuz Zum Vergrößern, auf den grünen Button mit einem Gedankenstrich zu verkleinern, oder auf die grünen Pfeile für benachbarte Karten.


METAR-TAF: